Time;durP1;ratioP1;P1;durP2;ratioP2;P2;SDS_P1;SDS_P2;PMS_P1;PMS_P2;Temp;Humidity;BMP_temperature;BMP_pressure;BME280_temperature;BME280_humidity;BME280_pressure;Samples;Min_cycle;Max_cycle;Signal;HPM_P1;HPM_P2
2022/02/12 00:02:11;;;;;;;5.78;2.25;;;;;;;26.26;29.38;98107.41;4997239;28;20025;-63
2022/02/12 00:04:36;;;;;;;5.05;1.80;;;;;;;26.26;29.35;98107.41;4995594;28;20049;-63
2022/02/12 00:07:02;;;;;;;5.57;2.00;;;;;;;26.27;29.34;98099.47;4997672;28;20018;-64
2022/02/12 00:09:27;;;;;;;7.63;2.42;;;;;;;26.25;29.27;98101.25;4998680;28;20403;-63
2022/02/12 00:11:53;;;;;;;3.65;1.73;;;;;;;26.27;29.32;98102.09;4996356;28;23946;-63
2022/02/12 00:14:18;;;;;;;4.45;2.05;;;;;;;26.26;29.33;98103.00;4994884;28;20040;-63
2022/02/12 00:16:44;;;;;;;5.70;2.17;;;;;;;26.26;29.46;98097.75;4997483;28;20044;-62
2022/02/12 00:19:09;;;;;;;5.57;1.90;;;;;;;26.24;29.42;98083.78;4997444;28;20036;-63
2022/02/12 00:21:35;;;;;;;3.53;1.67;;;;;;;26.26;29.35;98097.75;4996279;28;20025;-63
2022/02/12 00:24:00;;;;;;;4.18;2.03;;;;;;;26.24;29.40;98091.66;5012989;28;20029;-62
2022/02/12 00:26:25;;;;;;;4.45;2.08;;;;;;;26.25;29.34;98090.75;4998974;28;20029;-63
2022/02/12 00:28:51;;;;;;;4.45;1.88;;;;;;;26.19;29.34;98085.69;5006552;28;20088;-63
2022/02/12 00:31:16;;;;;;;3.35;1.63;;;;;;;26.20;29.49;98077.75;5004131;28;20033;-62
2022/02/12 00:33:42;;;;;;;5.15;2.20;;;;;;;26.23;29.32;98082.91;5007592;28;20029;-63
2022/02/12 00:36:08;;;;;;;4.20;1.70;;;;;;;26.25;29.41;98085.50;5008480;28;20455;-63
2022/02/12 00:38:33;;;;;;;5.63;1.70;;;;;;;26.25;29.21;98079.38;5006023;28;20080;-63
2022/02/12 00:40:59;;;;;;;4.60;2.40;;;;;;;26.23;29.31;98088.19;5007558;28;20045;-63
2022/02/12 00:43:24;;;;;;;5.28;1.80;;;;;;;26.23;29.26;98084.69;5001371;28;20091;-63
2022/02/12 00:45:50;;;;;;;4.18;1.65;;;;;;;26.24;29.27;98086.41;5020297;28;20072;-63
2022/02/12 00:48:15;;;;;;;2.80;1.67;;;;;;;26.23;29.36;98079.41;5005086;28;20036;-62
2022/02/12 00:50:41;;;;;;;4.53;1.80;;;;;;;26.23;29.32;98082.06;5017449;28;20064;-63
2022/02/12 00:53:06;;;;;;;5.18;1.75;;;;;;;26.23;29.21;98079.41;5017021;28;20697;-62
2022/02/12 00:55:32;;;;;;;5.72;2.15;;;;;;;26.22;29.20;98080.34;5003162;28;20037;-62
2022/02/12 00:57:58;;;;;;;5.88;1.98;;;;;;;26.22;29.35;98081.22;4996271;28;20807;-62
2022/02/12 01:00:24;;;;;;;3.08;1.80;;;;;;;26.20;29.27;98077.75;5015688;28;20029;-62
2022/02/12 01:02:49;;;;;;;7.60;1.73;;;;;;;26.23;29.26;98082.06;5001939;28;20056;-63
2022/02/12 01:05:15;;;;;;;3.40;1.55;;;;;;;26.21;29.29;98084.72;5003838;28;20029;-63
2022/02/12 01:07:40;;;;;;;3.25;1.83;;;;;;;26.22;29.20;98075.09;5002104;28;20021;-62
2022/02/12 01:10:07;;;;;;;3.33;1.55;;;;;;;26.22;29.14;98085.59;4998101;28;20057;-62
2022/02/12 01:12:32;;;;;;;4.85;1.73;;;;;;;26.21;29.25;98084.72;5002683;28;20040;-62
2022/02/12 01:14:58;;;;;;;4.13;1.60;;;;;;;26.22;29.27;98085.59;5004768;28;20037;-62
2022/02/12 01:17:23;;;;;;;2.72;1.60;;;;;;;26.21;29.01;98089.13;4998261;28;20037;-63
2022/02/12 01:19:49;;;;;;;4.50;1.63;;;;;;;26.20;29.30;98088.28;4995454;28;20855;-62
2022/02/12 01:22:16;;;;;;;3.58;1.45;;;;;;;26.18;29.06;98078.72;5001286;28;20045;-63
2022/02/12 01:24:42;;;;;;;3.40;1.60;;;;;;;26.19;29.18;98081.31;4974845;28;20900;-62
2022/02/12 01:27:08;;;;;;;5.95;1.50;;;;;;;26.19;29.18;98081.31;4994462;28;20029;-62
2022/02/12 01:29:33;;;;;;;4.00;1.65;;;;;;;26.20;29.19;98076.91;5013234;28;20040;-62
2022/02/12 01:32:03;;;;;;;3.90;1.55;;;;;;;26.19;29.25;98069.94;5024434;28;20641;-62
2022/02/12 01:34:33;;;;;;;3.40;1.58;;;;;;;26.19;29.25;98068.16;4971827;28;20033;-61
2022/02/12 01:36:59;;;;;;;2.40;1.20;;;;;;;26.18;29.12;98063.84;4986745;28;20036;-61
2022/02/12 01:39:25;;;;;;;2.80;1.50;;;;;;;26.19;29.29;98064.69;4992680;28;20029;-62
2022/02/12 01:41:52;;;;;;;4.00;1.40;;;;;;;26.16;29.06;98054.28;4994328;28;20139;-61
2022/02/12 01:44:47;;;;;;;2.90;1.30;;;;;;;26.18;29.19;98057.72;4993421;28;20037;-62
2022/02/12 01:47:12;;;;;;;4.53;1.50;;;;;;;26.17;29.12;98066.50;4973972;28;20083;-62
2022/02/12 01:49:39;;;;;;;2.10;1.00;;;;;;;26.16;29.10;98070.91;4992346;28;20040;-62
2022/02/12 01:52:06;;;;;;;3.35;1.67;;;;;;;26.16;29.15;98055.13;4991070;28;20033;-62
2022/02/12 01:54:32;;;;;;;2.78;1.50;;;;;;;26.15;29.11;98048.16;4995757;28;20041;-61
2022/02/12 01:56:59;;;;;;;2.83;1.35;;;;;;;26.16;29.10;98046.41;4994254;28;20757;-62
2022/02/12 01:59:24;;;;;;;2.92;1.50;;;;;;;26.15;29.16;98044.66;4989851;28;20510;-62
2022/02/12 02:01:50;;;;;;;2.17;1.17;;;;;;;26.16;29.06;98046.41;4991582;28;20037;-61
2022/02/12 02:04:16;;;;;;;1.98;1.10;;;;;;;26.10;29.17;98031.72;4989294;28;21527;-61
2022/02/12 02:06:43;;;;;;;2.45;1.27;;;;;;;26.15;29.11;98034.16;4992211;28;20985;-62
2022/02/12 02:09:09;;;;;;;3.00;1.42;;;;;;;26.14;29.06;98035.09;4990337;28;20036;-62
2022/02/12 02:11:34;;;;;;;2.90;1.30;;;;;;;26.14;29.05;98035.94;5007641;28;20745;-62
2022/02/12 02:14:00;;;;;;;2.25;1.20;;;;;;;26.15;29.03;98026.28;4972395;28;20041;-62
2022/02/12 02:16:25;;;;;;;1.92;1.02;;;;;;;26.14;29.06;98029.81;4989810;28;20164;-62
2022/02/12 02:18:51;;;;;;;2.25;1.13;;;;;;;26.15;29.13;98031.53;4991538;28;20628;-62
2022/02/12 02:21:16;;;;;;;3.88;1.38;;;;;;;26.09;29.13;98017.72;4992082;28;20754;-62
2022/02/12 02:23:42;;;;;;;2.15;1.30;;;;;;;26.13;29.00;98023.72;4995100;28;20029;-62
2022/02/12 02:26:09;;;;;;;2.95;1.35;;;;;;;26.12;29.13;98022.00;4992164;28;20031;-62
2022/02/12 02:28:34;;;;;;;3.55;1.42;;;;;;;26.09;28.91;98012.44;4988953;28;20035;-62
2022/02/12 02:31:00;;;;;;;1.98;1.02;;;;;;;26.10;29.03;98019.41;4993770;28;20033;-62
2022/02/12 02:33:25;;;;;;;3.40;1.55;;;;;;;26.10;29.02;98016.78;4989016;28;20033;-63
2022/02/12 02:35:51;;;;;;;2.53;1.33;;;;;;;26.12;29.15;98015.91;4991064;28;20563;-62
2022/02/12 02:38:17;;;;;;;3.28;1.10;;;;;;;26.08;29.08;98018.63;4993221;28;20029;-62
2022/02/12 02:40:44;;;;;;;1.40;1.00;;;;;;;26.10;29.14;98019.41;4979511;28;20033;-62
2022/02/12 02:43:10;;;;;;;2.05;0.98;;;;;;;26.10;29.10;98016.78;4997960;28;20087;-62
2022/02/12 02:45:36;;;;;;;2.47;1.33;;;;;;;26.08;29.01;98010.75;5008813;28;22441;-62
2022/02/12 02:48:02;;;;;;;3.58;1.17;;;;;;;26.09;29.06;98007.19;4992240;28;20032;-62
2022/02/12 02:56:04;;;;;;;2.63;1.40;;;;;;;26.08;29.04;97994.97;5003818;28;21013;-62
2022/02/12 02:58:34;;;;;;;2.97;1.20;;;;;;;26.06;29.20;97986.31;5006023;28;20037;-62
2022/02/12 03:01:01;;;;;;;1.50;1.20;;;;;;;26.02;29.00;97984.72;5006477;28;20818;-62
2022/02/12 03:03:26;;;;;;;4.32;2.20;;;;;;;26.06;29.04;97983.69;5003031;28;20022;-62
2022/02/12 03:05:52;;;;;;;5.00;2.40;;;;;;;26.06;28.75;97990.69;5006496;28;20044;-62
2022/02/12 03:08:17;;;;;;;5.22;1.40;;;;;;;26.04;28.71;97988.13;5007779;28;20037;-62
2022/02/12 03:10:43;;;;;;;4.85;1.42;;;;;;;26.03;28.88;97996.91;4996515;28;20032;-63
2022/02/12 03:13:08;;;;;;;2.08;1.20;;;;;;;26.02;28.81;97984.72;5005041;28;20025;-62
2022/02/12 03:15:38;;;;;;;2.80;1.40;;;;;;;26.01;28.92;97977.72;5002060;28;20033;-62
2022/02/12 03:18:03;;;;;;;2.22;1.15;;;;;;;26.01;29.01;97979.50;5007161;28;20057;-62
2022/02/12 03:20:29;;;;;;;2.17;1.02;;;;;;;26.01;29.00;97985.59;5008116;28;20258;-62
2022/02/12 03:22:55;;;;;;;2.78;1.33;;;;;;;25.93;29.18;97964.84;4993958;28;20029;-61
2022/02/12 03:25:20;;;;;;;2.38;1.30;;;;;;;26.00;28.75;97976.00;4985064;28;20618;-62
2022/02/12 03:27:52;;;;;;;2.83;1.83;;;;;;;26.00;29.02;97976.00;4991225;28;20029;-62
2022/02/12 03:30:17;;;;;;;2.97;1.48;;;;;;;25.99;29.05;97976.94;4995657;28;20454;-61
2022/02/12 03:32:42;;;;;;;2.22;1.20;;;;;;;26.00;28.98;97981.25;5005369;28;20037;-62
2022/02/12 03:35:08;;;;;;;1.40;0.90;;;;;;;26.00;28.91;97976.00;5004798;28;20029;-62
2022/02/12 03:37:33;;;;;;;1.55;1.15;;;;;;;26.00;29.01;97976.00;5005316;28;20190;-61
2022/02/12 03:39:59;;;;;;;2.80;1.23;;;;;;;25.98;29.04;97975.22;5017308;28;20033;-61
2022/02/12 03:42:24;;;;;;;3.17;1.05;;;;;;;25.99;29.10;97969.03;5002701;28;20037;-62
2022/02/12 03:44:50;;;;;;;2.13;1.15;;;;;;;26.00;29.02;97969.91;5005409;28;20985;-61
2022/02/12 03:47:15;;;;;;;1.95;1.08;;;;;;;26.00;28.90;97964.66;5001112;28;20034;-62
2022/02/12 03:49:41;;;;;;;1.98;1.10;;;;;;;25.99;28.94;97958.53;4990672;28;20150;-62
2022/02/12 03:52:06;;;;;;;1.40;0.90;;;;;;;26.00;28.82;97957.63;4990712;28;21030;-62
2022/02/12 03:54:31;;;;;;;2.20;1.05;;;;;;;25.95;28.90;97946.44;4973910;28;20045;-61
2022/02/12 03:57:00;;;;;;;2.65;1.20;;;;;;;25.98;29.03;97946.31;4998155;28;20040;-61
2022/02/12 03:59:25;;;;;;;1.20;0.80;;;;;;;25.98;28.89;97945.44;4985902;28;20113;-61
2022/02/12 04:01:50;;;;;;;4.28;1.05;;;;;;;25.97;28.96;97934.09;4992854;28;20033;-62
2022/02/12 04:04:16;;;;;;;2.35;1.10;;;;;;;25.97;28.88;97941.97;4994181;28;20032;-62
2022/02/12 04:06:41;;;;;;;5.22;0.98;;;;;;;25.97;28.85;97939.34;5010569;28;20062;-61
2022/02/12 04:09:07;;;;;;;1.75;0.90;;;;;;;25.97;29.06;97934.09;4993100;28;20037;-61
2022/02/12 04:11:32;;;;;;;1.60;1.02;;;;;;;25.96;28.86;97924.50;4993314;28;20063;-62
2022/02/12 04:13:58;;;;;;;1.55;1.00;;;;;;;25.92;28.87;97926.38;4994354;28;20032;-62
2022/02/12 04:16:23;;;;;;;1.70;0.90;;;;;;;25.96;28.84;97922.75;4992351;28;20079;-61
2022/02/12 04:18:48;;;;;;;1.52;0.75;;;;;;;25.96;28.83;97927.13;4989230;28;20022;-62
2022/02/12 04:21:14;;;;;;;1.75;1.02;;;;;;;25.95;28.85;97920.16;4995948;28;20018;-62
2022/02/12 04:23:40;;;;;;;2.08;1.30;;;;;;;25.94;28.91;97907.94;4996849;28;20030;-62
2022/02/12 04:26:08;;;;;;;1.77;1.08;;;;;;;25.94;28.83;97914.03;4986904;28;20025;-62
2022/02/12 04:28:36;;;;;;;1.77;1.02;;;;;;;25.93;28.97;97901.00;4994917;28;20041;-61
2022/02/12 04:31:04;;;;;;;1.95;1.10;;;;;;;25.94;28.98;97900.06;4994231;28;20029;-62
2022/02/12 04:33:30;;;;;;;2.10;0.88;;;;;;;25.90;28.78;97890.59;4991322;28;20037;-62
2022/02/12 04:35:55;;;;;;;1.67;1.02;;;;;;;25.93;28.80;97899.19;5008758;28;20025;-61
2022/02/12 04:38:21;;;;;;;2.72;1.10;;;;;;;25.93;28.74;97895.75;4994032;28;20040;-61
2022/02/12 04:40:46;;;;;;;1.20;0.80;;;;;;;25.93;28.95;97895.75;5006331;28;20029;-61
2022/02/12 04:43:12;;;;;;;1.88;0.90;;;;;;;25.92;28.88;97896.63;5008306;28;20025;-62
2022/02/12 04:45:37;;;;;;;1.50;1.00;;;;;;;25.92;28.88;97894.00;4994575;28;20021;-61
2022/02/12 04:48:03;;;;;;;1.65;0.80;;;;;;;25.91;28.79;97890.53;4992204;28;20028;-61
2022/02/12 04:50:29;;;;;;;1.23;0.85;;;;;;;25.90;29.21;97880.91;4985618;28;20025;-62
2022/02/12 04:52:55;;;;;;;1.20;0.82;;;;;;;25.92;28.78;97880.88;4987809;28;20025;-62
2022/02/12 04:55:20;;;;;;;0.98;0.77;;;;;;;25.92;28.84;97880.88;4995273;28;20266;-62
2022/02/12 04:57:46;;;;;;;0.98;0.70;;;;;;;25.90;28.92;97873.03;5010208;28;20072;-62
2022/02/12 05:00:12;;;;;;;1.63;0.90;;;;;;;25.91;28.92;97876.53;4994904;28;20495;-63
2022/02/12 05:02:37;;;;;;;1.52;0.93;;;;;;;25.90;28.79;97869.56;4997529;28;20045;-64
2022/02/12 05:05:03;;;;;;;1.02;0.80;;;;;;;25.90;28.88;97865.16;5000406;28;20053;-63
2022/02/12 05:07:29;;;;;;;1.65;0.90;;;;;;;25.89;28.98;97863.47;5005877;28;20029;-62
2022/02/12 05:09:54;;;;;;;2.03;1.23;;;;;;;25.89;28.98;97862.63;4994781;28;20135;-62
2022/02/12 05:12:19;;;;;;;1.88;1.00;;;;;;;25.89;28.81;97857.38;4994830;28;20034;-62
2022/02/12 05:14:45;;;;;;;1.10;0.77;;;;;;;25.88;28.79;97866.13;4988386;28;20075;-62
2022/02/12 05:17:10;;;;;;;1.45;0.93;;;;;;;25.86;28.93;97860.09;4992171;28;20106;-62
2022/02/12 05:19:36;;;;;;;2.78;1.08;;;;;;;25.87;28.92;97864.44;4992732;28;20153;-62
2022/02/12 05:22:01;;;;;;;1.33;0.80;;;;;;;25.86;28.94;97862.72;5010609;28;20120;-63
2022/02/12 05:24:27;;;;;;;0.98;0.77;;;;;;;25.87;28.79;97864.44;4983820;28;20132;-63
2022/02/12 05:26:52;;;;;;;1.10;0.70;;;;;;;25.87;28.80;97859.19;4995021;28;20025;-62
2022/02/12 05:29:18;;;;;;;3.63;1.10;;;;;;;25.86;28.94;97860.09;4995987;28;20709;-63
2022/02/12 05:31:44;;;;;;;1.33;0.80;;;;;;;25.86;28.77;97863.59;5005434;28;20025;-62
2022/02/12 05:34:09;;;;;;;1.42;0.85;;;;;;;25.86;28.96;97862.72;4997185;28;20099;-63
2022/02/12 05:36:35;;;;;;;1.25;0.70;;;;;;;25.85;28.82;97861.84;4994496;28;20466;-62
2022/02/12 05:39:02;;;;;;;1.17;0.73;;;;;;;25.83;28.84;97854.03;5008553;28;20029;-63
2022/02/12 05:41:28;;;;;;;1.20;0.93;;;;;;;25.83;28.91;97848.78;5021661;28;20032;-63
2022/02/12 05:43:53;;;;;;;1.55;0.80;;;;;;;25.83;28.79;97843.53;5003258;28;20025;-63
2022/02/12 05:46:18;;;;;;;1.75;0.90;;;;;;;25.83;28.85;97842.69;5005374;28;20021;-62
2022/02/12 05:48:45;;;;;;;1.52;0.90;;;;;;;25.82;28.88;97841.81;5007483;28;20404;-62
2022/02/12 05:51:10;;;;;;;2.30;0.95;;;;;;;25.80;28.76;97843.66;4998728;28;20029;-62
2022/02/12 05:53:36;;;;;;;2.67;0.93;;;;;;;25.82;28.73;97841.81;5004923;28;20056;-63
2022/02/12 05:56:03;;;;;;;1.48;0.98;;;;;;;25.82;28.82;97841.81;5006110;28;20559;-63
2022/02/12 05:58:28;;;;;;;1.90;0.90;;;;;;;25.81;28.82;97834.88;5021938;28;20033;-62
2022/02/12 06:00:53;;;;;;;1.42;0.93;;;;;;;25.81;28.86;97837.50;5006488;28;20683;-63
2022/02/12 06:03:19;;;;;;;0.90;0.65;;;;;;;25.81;28.75;97834.88;5006383;28;20034;-63
2022/02/12 06:05:45;;;;;;;1.50;0.90;;;;;;;25.77;29.00;97821.88;5007108;28;20571;-62
2022/02/12 06:08:10;;;;;;;1.52;1.00;;;;;;;25.81;28.88;97824.34;4998677;28;20029;-62
2022/02/12 06:10:36;;;;;;;2.38;1.00;;;;;;;25.81;28.89;97828.75;4991716;28;20470;-62
2022/02/12 06:13:01;;;;;;;1.50;0.80;;;;;;;25.80;28.71;97822.66;4993158;28;20037;-62
2022/02/12 06:15:27;;;;;;;1.75;0.88;;;;;;;25.81;28.74;97821.72;4991428;28;20081;-62
2022/02/12 06:17:52;;;;;;;1.48;0.90;;;;;;;25.81;28.84;97824.34;4991049;28;20083;-61
2022/02/12 06:20:18;;;;;;;8.48;2.30;;;;;;;25.80;28.70;97821.78;4990104;28;20037;-61
2022/02/12 06:22:43;;;;;;;2.00;1.40;;;;;;;25.78;28.74;97819.22;4992455;28;20080;-62
2022/02/12 06:25:09;;;;;;;1.83;1.08;;;;;;;25.77;28.64;97822.75;4975277;28;20033;-63
2022/02/12 06:27:34;;;;;;;2.55;1.10;;;;;;;25.75;28.62;97814.09;4983048;28;20025;-62
2022/02/12 06:30:00;;;;;;;3.38;1.20;;;;;;;25.78;28.48;97829.72;4995949;28;20065;-62
2022/02/12 06:32:26;;;;;;;3.20;1.20;;;;;;;25.79;28.81;97831.44;4997543;28;20037;-62
2022/02/12 06:34:55;;;;;;;1.52;0.80;;;;;;;25.79;28.78;97822.72;4994568;28;20026;-61
2022/02/12 06:37:20;;;;;;;1.45;1.00;;;;;;;25.79;28.62;97820.94;4998645;28;20029;-62
2022/02/12 06:39:46;;;;;;;1.58;1.10;;;;;;;25.79;28.84;97826.19;5005975;28;20083;-62
2022/02/12 06:42:12;;;;;;;1.58;0.98;;;;;;;25.79;28.71;97826.19;4995570;28;20086;-62
2022/02/12 06:44:37;;;;;;;1.35;1.00;;;;;;;25.80;28.66;97822.66;4997622;28;20099;-62
2022/02/12 06:47:03;;;;;;;2.95;1.15;;;;;;;25.80;28.81;97820.03;4997698;28;20669;-62
2022/02/12 06:49:29;;;;;;;1.55;1.08;;;;;;;25.81;29.09;97824.34;4993601;28;20029;-62
2022/02/12 06:51:54;;;;;;;1.63;1.10;;;;;;;25.82;28.75;97826.06;5000109;28;20888;-62
2022/02/12 06:54:20;;;;;;;1.23;1.02;;;;;;;25.83;28.67;97822.53;4984498;28;20921;-62
2022/02/12 06:56:45;;;;;;;3.28;1.48;;;;;;;25.81;28.61;97819.09;4994245;28;20672;-62
2022/02/12 06:59:10;;;;;;;3.83;1.20;;;;;;;25.83;28.62;97817.25;4998185;28;20025;-62
2022/02/12 07:01:36;;;;;;;1.30;1.20;;;;;;;25.83;28.75;97819.91;4996957;28;21571;-62
2022/02/12 07:04:02;;;;;;;1.42;1.00;;;;;;;25.83;28.51;97822.53;4998068;28;20029;-62
2022/02/12 07:06:27;;;;;;;2.20;1.20;;;;;;;25.82;28.63;97826.06;5000709;28;20629;-62
2022/02/12 07:08:53;;;;;;;1.65;1.25;;;;;;;25.83;28.67;97825.16;5002759;28;20029;-62
2022/02/12 07:11:18;;;;;;;2.13;1.00;;;;;;;25.83;28.68;97822.53;4995212;28;20040;-61
2022/02/12 07:13:44;;;;;;;1.98;1.17;;;;;;;25.86;28.74;97833.84;4998628;28;20028;-62
2022/02/12 07:16:10;;;;;;;1.73;1.13;;;;;;;25.86;28.66;97825.97;4999339;28;20022;-62
2022/02/12 07:18:36;;;;;;;1.92;1.30;;;;;;;25.87;28.62;97830.28;5000447;28;20025;-61
2022/02/12 07:21:01;;;;;;;1.67;1.30;;;;;;;25.86;28.63;97825.97;5009875;28;21043;-61
2022/02/12 07:23:26;;;;;;;1.42;1.30;;;;;;;25.87;28.85;97822.41;4977810;28;20033;-61
2022/02/12 07:25:52;;;;;;;6.90;1.35;;;;;;;25.87;28.74;97825.03;4997846;28;20117;-61
2022/02/12 07:28:18;;;;;;;6.57;1.33;;;;;;;25.85;28.68;97819.84;4987485;28;20025;-61
2022/02/12 07:30:44;;;;;;;10.55;1.60;;;;;;;25.85;28.71;97816.38;4978986;28;20033;-61
2022/02/12 07:33:09;;;;;;;9.30;1.30;;;;;;;25.78;28.79;97818.38;4989543;28;20040;-61
2022/02/12 07:35:34;;;;;;;2.70;1.33;;;;;;;25.86;28.73;97831.22;4998020;28;20026;-62
2022/02/12 07:38:00;;;;;;;3.33;1.00;;;;;;;25.87;28.94;97838.16;4982136;28;20807;-61
2022/02/12 07:40:26;;;;;;;5.28;1.60;;;;;;;25.88;28.96;97834.63;4987068;28;20030;-62
2022/02/12 07:42:51;;;;;;;3.88;1.30;;;;;;;25.89;28.94;97839.00;4965010;28;20718;-61
2022/02/12 07:45:17;;;;;;;1.55;1.13;;;;;;;25.89;29.00;97842.44;4971219;28;21146;-61
2022/02/12 07:47:43;;;;;;;3.35;1.50;;;;;;;25.92;28.88;97836.22;4981965;28;20116;-61
2022/02/12 07:50:09;;;;;;;3.38;1.75;;;;;;;25.93;29.06;97830.09;4986312;28;20044;-61
2022/02/12 07:52:35;;;;;;;3.33;1.77;;;;;;;25.95;28.84;97836.13;4981029;28;20412;-62
2022/02/12 07:55:00;;;;;;;4.10;1.73;;;;;;;25.95;28.64;97837.00;4990741;28;20911;-62
2022/02/12 07:57:26;;;;;;;3.95;1.83;;;;;;;25.96;28.45;97832.56;4960955;28;20053;-61
2022/02/12 07:59:52;;;;;;;5.35;1.73;;;;;;;25.99;28.35;97845.59;4981563;28;20037;-61
2022/02/12 08:02:18;;;;;;;3.45;1.90;;;;;;;25.99;28.28;97842.97;4980396;28;20584;-61
2022/02/12 08:04:43;;;;;;;4.72;1.90;;;;;;;26.01;28.28;97849.00;4981418;28;20768;-61
2022/02/12 08:09:53;;;;;;;4.57;1.85;;;;;;;26.00;28.17;97844.69;4992298;28;20099;-61
2022/02/12 08:12:19;;;;;;;4.07;2.17;;;;;;;26.04;27.98;97840.16;4976235;28;20056;-61
2022/02/12 08:14:52;;;;;;;4.15;1.73;;;;;;;26.05;27.92;97837.47;4988453;28;20041;-61
2022/02/12 08:17:19;;;;;;;3.95;2.30;;;;;;;26.05;27.99;97840.09;5007751;28;20222;-61
2022/02/12 08:19:45;;;;;;;5.47;2.78;;;;;;;26.07;27.64;97827.78;4992518;28;20053;-61
2022/02/12 08:22:13;;;;;;;4.68;2.92;;;;;;;26.06;27.43;97818.19;4989328;28;20029;-61
2022/02/12 08:24:39;;;;;;;4.05;2.75;;;;;;;26.10;27.27;97819.78;4984786;28;20075;-61
2022/02/12 08:27:04;;;;;;;4.10;2.00;;;;;;;26.10;27.25;97819.78;4981317;28;20048;-61
2022/02/12 08:29:30;;;;;;;3.90;1.98;;;;;;;26.12;27.46;97832.84;4989797;28;20037;-62
2022/02/12 08:31:56;;;;;;;4.55;1.88;;;;;;;26.13;27.76;97828.47;4983848;28;20029;-61
2022/02/12 08:34:23;;;;;;;2.72;1.75;;;;;;;26.17;27.71;97840.56;4986824;28;20112;-62
2022/02/12 08:36:49;;;;;;;3.25;1.73;;;;;;;26.18;27.84;97842.28;4992384;28;20029;-61
2022/02/12 08:39:14;;;;;;;2.42;1.83;;;;;;;26.21;27.87;97843.00;4991668;28;20036;-61
2022/02/12 08:41:39;;;;;;;2.65;1.80;;;;;;;26.24;27.83;97849.94;4991146;28;21851;-61
2022/02/12 08:44:05;;;;;;;2.78;1.52;;;;;;;26.27;27.85;97847.19;4991328;28;20587;-61
2022/02/12 08:46:30;;;;;;;3.83;1.70;;;;;;;26.29;27.92;97845.41;4990883;28;20034;-61
2022/02/12 08:48:56;;;;;;;5.40;1.70;;;;;;;26.31;28.08;97830.41;4996582;28;20026;-61
2022/02/12 08:51:21;;;;;;;3.05;1.50;;;;;;;26.34;27.95;97832.94;4995867;28;20044;-62
2022/02/12 08:53:47;;;;;;;2.40;1.45;;;;;;;26.37;27.94;97831.06;4997193;28;21061;-62
2022/02/12 08:56:12;;;;;;;2.22;1.50;;;;;;;26.39;28.00;97822.22;5015649;28;20691;-61
2022/02/12 08:58:39;;;;;;;2.92;1.23;;;;;;;26.42;28.13;97818.59;5000830;28;20541;-62
2022/02/12 09:01:05;;;;;;;3.95;1.70;;;;;;;26.44;28.11;97820.28;4996224;28;20021;-63
2022/02/12 09:03:30;;;;;;;4.13;1.50;;;;;;;26.48;28.13;97818.38;4999281;28;20049;-63
2022/02/12 09:05:58;;;;;;;4.78;1.30;;;;;;;26.50;28.21;97811.28;5004592;28;20041;-63
2022/02/12 09:08:23;;;;;;;2.58;1.90;;;;;;;26.52;28.20;97809.47;5000736;28;20029;-63
2022/02/12 09:10:49;;;;;;;5.05;1.42;;;;;;;26.52;28.29;97798.94;5006305;28;20119;-63
2022/02/12 09:13:14;;;;;;;6.95;1.67;;;;;;;26.56;28.11;97799.66;5005044;28;20029;-63
2022/02/12 09:15:40;;;;;;;3.28;1.48;;;;;;;26.58;28.18;97797.84;5006098;28;20029;-64
2022/02/12 09:18:05;;;;;;;4.97;1.30;;;;;;;26.59;28.13;97800.41;5005025;28;20519;-62
2022/02/12 09:20:31;;;;;;;2.20;1.50;;;;;;;26.61;28.25;97793.31;5006810;28;20029;-62
2022/02/12 09:22:57;;;;;;;13.27;2.95;;;;;;;26.60;27.59;97794.25;4993259;28;20597;-63
2022/02/12 09:25:22;;;;;;;6.05;2.33;;;;;;;26.59;26.84;97797.75;5002318;28;20065;-63
2022/02/12 09:27:48;;;;;;;15.38;4.63;;;;;;;26.46;22.83;97800.03;5008028;28;20107;-63
2022/02/12 09:30:13;;;;;;;14.98;4.93;;;;;;;26.25;20.86;97791.22;4994947;28;20029;-64
2022/02/12 09:32:39;;;;;;;14.82;4.68;;;;;;;25.95;20.78;97792.34;4991258;28;20123;-63
2022/02/12 09:35:05;;;;;;;12.90;4.18;;;;;;;25.72;21.13;97787.94;4992772;28;21249;-63
2022/02/12 09:37:30;;;;;;;11.85;3.83;;;;;;;25.54;21.57;97789.44;4987476;28;20045;-63
2022/02/12 09:39:56;;;;;;;16.20;3.67;;;;;;;25.42;22.07;97793.34;4986329;28;20060;-63
2022/02/12 09:42:21;;;;;;;10.05;3.92;;;;;;;25.33;22.10;97791.06;4978959;28;20037;-63
2022/02/12 09:44:47;;;;;;;11.15;3.50;;;;;;;25.26;22.23;97786.03;4996519;28;20492;-63
2022/02/12 09:47:36;;;;;;;13.68;3.85;;;;;;;25.23;22.33;97786.16;4998344;28;20091;-62
2022/02/12 09:50:02;;;;;;;9.10;3.70;;;;;;;25.19;22.57;97779.28;4993452;28;20036;-63
2022/02/12 09:52:29;;;;;;;8.90;3.50;;;;;;;25.19;22.62;97787.16;4990358;28;20038;-64
2022/02/12 09:54:54;;;;;;;10.82;3.80;;;;;;;25.18;22.33;97772.34;4982144;28;20149;-64
2022/02/12 09:57:20;;;;;;;10.07;3.78;;;;;;;25.17;22.54;97781.13;4994273;28;20041;-64
2022/02/12 09:59:45;;;;;;;6.93;3.08;;;;;;;25.18;22.84;97773.19;4989790;28;20029;-64
2022/02/12 10:02:17;;;;;;;7.22;3.40;;;;;;;25.19;22.60;97768.78;4990848;28;20041;-64
2022/02/12 10:04:43;;;;;;;9.50;3.20;;;;;;;25.21;23.16;97771.38;4979373;28;20809;-62
2022/02/12 10:07:21;;;;;;;9.45;2.70;;;;;;;25.24;23.44;97766.03;4991381;28;20041;-62
2022/02/12 10:09:47;;;;;;;8.65;2.58;;;;;;;25.27;24.00;97763.28;4988857;28;20084;-61
2022/02/12 10:12:21;;;;;;;14.38;3.20;;;;;;;25.36;24.10;97759.47;4983091;28;20225;-62
2022/02/12 10:14:48;;;;;;;14.10;3.70;;;;;;;25.43;24.39;97755.69;4960436;28;20065;-61
2022/02/12 10:17:15;;;;;;;15.20;4.15;;;;;;;25.50;24.66;97757.19;4972946;28;20131;-61
2022/02/12 10:19:45;;;;;;;20.48;4.88;;;;;;;25.57;24.61;97761.34;4962111;28;20021;-60
2022/02/12 10:22:17;;;;;;;24.38;4.65;;;;;;;25.63;24.92;97762.88;4994428;28;20029;-61
2022/02/12 10:24:48;;;;;;;15.13;4.55;;;;;;;25.70;25.10;97753.00;4978861;28;20036;-63
2022/02/12 10:27:13;;;;;;;19.23;4.55;;;;;;;25.76;25.16;97742.28;4978367;28;20037;-63
2022/02/12 10:29:39;;;;;;;11.57;4.20;;;;;;;25.81;25.27;97742.09;4985739;28;20558;-63
2022/02/12 10:32:05;;;;;;;18.00;4.55;;;;;;;25.86;25.24;97732.31;4982866;28;20512;-63
2022/02/12 10:34:42;;;;;;;16.27;4.03;;;;;;;25.91;25.41;97735.59;4976780;28;20116;-63
2022/02/12 10:37:08;;;;;;;12.55;4.22;;;;;;;25.96;25.37;97727.53;4988866;28;20468;-63
2022/02/12 10:39:38;;;;;;;12.40;3.97;;;;;;;26.01;25.42;97730.81;4976469;28;20044;-61
2022/02/12 10:42:07;;;;;;;14.38;4.03;;;;;;;26.04;25.59;97733.34;4984532;28;20274;-62
2022/02/12 10:44:33;;;;;;;15.38;3.80;;;;;;;26.07;25.63;97725.34;4999234;28;20526;-63
2022/02/12 10:46:58;;;;;;;13.23;4.00;;;;;;;26.12;25.58;97721.69;4965087;28;20022;-63
2022/02/12 10:49:24;;;;;;;10.32;4.00;;;;;;;26.16;25.65;97723.28;4981138;28;20025;-63
2022/02/12 10:51:51;;;;;;;10.35;3.25;;;;;;;26.17;25.92;97710.09;4983124;28;20048;-63
2022/02/12 10:54:19;;;;;;;10.05;3.22;;;;;;;26.19;25.81;97708.22;4982886;28;20045;-63
2022/02/12 10:56:57;;;;;;;14.88;3.63;;;;;;;26.23;25.93;97714.22;4997052;28;20040;-63
2022/02/12 10:59:23;;;;;;;10.38;3.70;;;;;;;26.26;26.05;97708.88;4983886;28;20284;-62
2022/02/12 11:01:50;;;;;;;22.17;3.17;;;;;;;26.29;26.17;97703.50;4985298;28;20032;-63
2022/02/12 11:04:16;;;;;;;9.77;2.88;;;;;;;26.29;26.21;97698.25;4984002;28;20079;-62
2022/02/12 11:06:43;;;;;;;10.85;3.25;;;;;;;26.33;26.22;97701.59;4972926;28;20439;-62
2022/02/12 11:09:09;;;;;;;13.98;3.22;;;;;;;26.34;26.36;97700.66;4982921;28;21609;-62
2022/02/12 11:11:34;;;;;;;9.30;2.97;;;;;;;26.35;26.49;97690.09;4996314;28;20572;-62
2022/02/12 11:14:00;;;;;;;11.23;3.10;;;;;;;26.37;27.14;97689.16;4967026;28;20893;-62
2022/02/12 11:16:27;;;;;;;14.40;3.10;;;;;;;26.35;27.68;97683.97;4975587;28;20419;-60
2022/02/12 11:18:52;;;;;;;9.63;2.90;;;;;;;26.33;27.94;97684.06;4988448;28;20033;-62
2022/02/12 11:21:18;;;;;;;9.73;2.80;;;;;;;26.35;27.97;97670.84;4990095;28;20028;-64
2022/02/12 11:24:08;;;;;;;6.35;2.80;;;;;;;26.38;28.28;97665.47;4989593;28;20726;-60
2022/02/12 11:26:44;;;;;;;10.10;3.00;;;;;;;26.46;28.06;97657.25;4995317;28;20032;-63
2022/02/12 11:29:31;;;;;;;7.68;2.60;;;;;;;26.56;28.21;97648.06;4985003;28;20033;-66
2022/02/12 11:32:13;;;;;;;5.90;2.63;;;;;;;26.68;28.19;97645.81;5002446;28;20147;-65
2022/02/12 11:34:58;;;;;;;5.45;2.58;;;;;;;26.81;28.03;97639.09;4995427;28;20029;-72
2022/02/12 11:37:30;;;;;;;6.25;2.60;;;;;;;26.94;27.96;97622.78;4988058;28;20453;-69